createdAt,value
2018-11-22T00:01:34.298Z,15.87
2018-11-22T00:04:02.731Z,13.83
2018-11-22T00:06:31.162Z,16.97
2018-11-22T00:08:59.658Z,16.03
2018-11-22T00:11:28.111Z,15.63
2018-11-22T00:13:56.588Z,15.93
2018-11-22T00:16:25.026Z,16.53
2018-11-22T00:18:53.472Z,16.37
2018-11-22T00:21:22.028Z,15.57
2018-11-22T00:23:50.460Z,15.10
2018-11-22T00:26:18.962Z,13.53
2018-11-22T00:28:47.433Z,15.47
2018-11-22T00:31:15.815Z,15.17
2018-11-22T00:33:44.390Z,15.40
2018-11-22T00:36:12.923Z,15.57
2018-11-22T00:38:41.601Z,16.50
2018-11-22T00:41:09.960Z,15.67
2018-11-22T00:43:38.436Z,16.40
2018-11-22T00:46:06.892Z,15.30
2018-11-22T00:48:35.391Z,16.30
2018-11-22T00:51:04.093Z,15.87
2018-11-22T00:53:32.569Z,15.90
2018-11-22T00:56:01.084Z,15.93
2018-11-22T00:58:29.515Z,16.73
2018-11-22T01:00:58.025Z,15.83
2018-11-22T01:03:26.550Z,17.40
2018-11-22T01:05:54.985Z,17.13
2018-11-22T01:08:23.467Z,15.80
2018-11-22T01:10:51.980Z,15.07
2018-11-22T01:13:20.472Z,16.37
2018-11-22T01:15:49.037Z,14.43
2018-11-22T01:18:17.521Z,15.10
2018-11-22T01:20:46.063Z,16.43
2018-11-22T01:23:14.543Z,15.87
2018-11-22T01:25:43.074Z,15.10
2018-11-22T01:28:11.627Z,15.77
2018-11-22T01:30:40.041Z,14.73
2018-11-22T01:33:08.539Z,15.03
2018-11-22T01:35:36.972Z,15.80
2018-11-22T01:38:05.546Z,16.33
2018-11-22T01:40:34.017Z,15.33
2018-11-22T01:43:02.542Z,15.43
2018-11-22T01:45:31.033Z,16.67
2018-11-22T01:47:59.473Z,15.23
2018-11-22T01:50:27.960Z,14.00
2018-11-22T01:52:56.489Z,14.83
2018-11-22T01:55:24.876Z,15.13
2018-11-22T01:57:53.363Z,14.37
2018-11-22T02:00:24.403Z,15.70
2018-11-22T02:02:52.913Z,14.77
2018-11-22T02:05:22.739Z,15.17
2018-11-22T02:07:51.244Z,17.10
2018-11-22T02:10:21.123Z,17.77
2018-11-22T02:12:49.683Z,17.87
2018-11-22T02:15:19.653Z,17.97
2018-11-22T02:17:48.283Z,17.67
2018-11-22T02:20:18.141Z,16.33
2018-11-22T02:22:46.693Z,18.40
2018-11-22T02:25:17.653Z,19.03
2018-11-22T02:27:44.749Z,19.87
2018-11-22T02:30:15.694Z,19.70
2018-11-22T02:32:45.387Z,20.33
2018-11-22T02:35:14.087Z,20.07
2018-11-22T02:37:42.982Z,19.43
2018-11-22T02:40:13.032Z,19.87
2018-11-22T02:42:42.574Z,20.50
2018-11-22T02:45:13.537Z,19.30
2018-11-22T02:47:42.204Z,20.50
2018-11-22T02:50:15.303Z,21.70
2018-11-22T02:52:43.919Z,18.60
2018-11-22T02:55:12.447Z,20.47
2018-11-22T02:57:41.520Z,20.30
2018-11-22T03:00:32.988Z,20.70
2018-11-22T03:03:01.650Z,21.73
2018-11-22T03:05:30.145Z,21.03
2018-11-22T03:07:58.810Z,22.13
2018-11-22T03:10:27.528Z,20.07
2018-11-22T03:12:56.035Z,20.87
2018-11-22T03:15:24.589Z,19.90
2018-11-22T03:17:53.041Z,20.83
2018-11-22T03:20:21.549Z,21.03
2018-11-22T03:22:50.102Z,19.20
2018-11-22T03:25:19.402Z,21.97
2018-11-22T03:27:48.535Z,21.57
2018-11-22T03:30:18.523Z,20.50
2018-11-22T03:32:47.020Z,21.47
2018-11-22T03:35:19.904Z,21.90
2018-11-22T03:37:48.385Z,20.27
2018-11-22T03:40:18.291Z,20.20
2018-11-22T03:42:46.788Z,19.00
2018-11-22T03:45:16.033Z,20.40
2018-11-22T03:47:44.879Z,19.83
2018-11-22T03:50:15.584Z,19.27
2018-11-22T03:52:44.812Z,20.60
2018-11-22T03:55:14.373Z,20.40
2018-11-22T03:57:43.216Z,19.07
2018-11-22T04:00:18.451Z,19.53
2018-11-22T04:02:47.275Z,18.33
2018-11-22T04:05:17.193Z,19.43
2018-11-22T04:07:45.606Z,19.53
2018-11-22T04:10:31.464Z,18.40
2018-11-22T04:12:59.939Z,18.37
2018-11-22T04:15:28.488Z,19.60
2018-11-22T04:17:57.030Z,19.83
2018-11-22T04:20:27.115Z,18.50
2018-11-22T04:22:55.520Z,19.80
2018-11-22T04:25:24.345Z,20.53
2018-11-22T04:27:52.783Z,18.90
2018-11-22T04:30:26.106Z,21.57
2018-11-22T04:32:54.705Z,19.27
2018-11-22T04:35:23.709Z,20.00
2018-11-22T04:37:52.352Z,18.77
2018-11-22T04:40:22.121Z,20.37
2018-11-22T04:42:51.365Z,18.90
2018-11-22T04:45:20.292Z,20.80
2018-11-22T04:47:49.659Z,20.03
2018-11-22T04:50:19.769Z,21.20
2018-11-22T04:52:48.201Z,19.80
2018-11-22T04:55:16.926Z,20.87
2018-11-22T04:57:45.515Z,19.30
2018-11-22T05:00:22.276Z,21.23
2018-11-22T05:02:50.775Z,20.43
2018-11-22T05:05:20.780Z,20.63
2018-11-22T05:07:49.248Z,21.53
2018-11-22T05:10:19.542Z,17.73
2018-11-22T05:12:49.529Z,20.57
2018-11-22T05:15:19.488Z,19.17
2018-11-22T05:17:48.014Z,20.13
2018-11-22T05:20:17.856Z,19.47
2018-11-22T05:22:46.808Z,20.87
2018-11-22T05:25:15.486Z,20.10
2018-11-22T05:27:44.004Z,21.13
2018-11-22T05:30:15.045Z,20.23
2018-11-22T05:32:43.661Z,20.77
2018-11-22T05:35:13.289Z,20.87
2018-11-22T05:37:41.806Z,20.87
2018-11-22T05:40:17.575Z,19.17
2018-11-22T05:42:46.077Z,20.17
2018-11-22T05:45:17.974Z,21.63
2018-11-22T05:47:45.289Z,22.03
2018-11-22T05:50:18.234Z,20.03
2018-11-22T05:52:47.392Z,20.30
2018-11-22T05:55:16.226Z,21.83
2018-11-22T05:57:44.980Z,18.20
2018-11-22T06:00:19.626Z,20.67
2018-11-22T06:02:48.045Z,21.00
2018-11-22T06:05:18.173Z,20.73
2018-11-22T06:07:46.743Z,21.77
2018-11-22T06:10:17.735Z,22.03
2018-11-22T06:12:46.664Z,21.97
2018-11-22T06:15:15.669Z,20.27
2018-11-22T06:17:45.593Z,20.10
2018-11-22T06:20:15.642Z,19.63
2018-11-22T06:22:44.692Z,21.00
2018-11-22T06:25:14.998Z,22.23
2018-11-22T06:27:43.461Z,21.40
2018-11-22T06:30:17.295Z,21.43
2018-11-22T06:32:47.411Z,22.70
2018-11-22T06:35:16.099Z,21.80
2018-11-22T12:17:52.106Z,15.33
2018-11-22T12:20:21.164Z,12.50
2018-11-22T12:22:52.147Z,16.20
2018-11-22T12:25:22.465Z,15.63
2018-11-22T12:27:55.710Z,15.13
2018-11-22T12:30:26.447Z,15.13
2018-11-22T12:33:00.229Z,15.77
2018-11-22T12:35:34.422Z,16.43
2018-11-22T12:38:08.304Z,15.17
2018-11-22T12:40:37.606Z,16.10
2018-11-22T12:43:05.692Z,14.87
2018-11-22T12:45:34.364Z,16.00
2018-11-22T12:48:04.123Z,15.37
2018-11-22T12:50:33.896Z,15.53
2018-11-22T12:53:02.660Z,15.63
2018-11-22T12:55:31.340Z,16.47
2018-11-22T12:58:00.319Z,16.73
2018-11-22T13:00:29.028Z,16.10
2018-11-22T13:02:57.729Z,17.17
2018-11-22T13:05:27.409Z,14.53
2018-11-22T13:07:56.001Z,16.37
2018-11-22T13:10:25.020Z,16.13
2018-11-22T13:12:53.591Z,15.30
2018-11-22T13:15:22.982Z,16.13
2018-11-22T13:17:51.686Z,16.63
2018-11-22T13:20:21.646Z,14.90
2018-11-22T13:22:50.255Z,16.57
2018-11-22T13:25:24.256Z,16.73
2018-11-22T13:27:52.971Z,15.30
2018-11-22T13:30:23.096Z,13.50
2018-11-22T13:32:52.189Z,14.53
2018-11-22T13:35:21.099Z,15.20
2018-11-22T13:37:51.024Z,16.30
2018-11-22T13:40:19.657Z,17.93
2018-11-22T13:42:49.107Z,16.27
2018-11-22T13:45:20.198Z,17.27
2018-11-22T13:47:49.681Z,17.17
2018-11-22T13:50:23.087Z,17.40
2018-11-22T13:52:53.195Z,16.27
2018-11-22T13:55:21.849Z,17.47
2018-11-22T13:57:50.709Z,16.90
2018-11-22T14:00:23.041Z,18.17
2018-11-22T14:02:54.091Z,17.07
2018-11-22T14:05:22.951Z,17.20
2018-11-22T14:07:51.885Z,19.13
2018-11-22T14:10:21.343Z,16.53
2018-11-22T14:12:50.540Z,17.13
2018-11-22T14:15:20.717Z,18.13
2018-11-22T14:17:51.027Z,18.33
2018-11-22T14:20:21.135Z,17.97
2018-11-22T14:22:49.870Z,17.83
2018-11-22T14:25:18.717Z,18.43
2018-11-22T14:27:48.544Z,18.43
2018-11-22T14:30:21.487Z,16.60
2018-11-22T14:32:51.162Z,19.03
2018-11-22T14:35:20.709Z,19.63
2018-11-22T14:37:49.184Z,19.00
2018-11-22T14:40:23.349Z,19.13
2018-11-22T14:42:52.947Z,21.17
2018-11-22T14:45:23.016Z,18.20
2018-11-22T14:47:52.608Z,18.40
2018-11-22T14:50:23.056Z,18.07
2018-11-22T14:52:58.275Z,18.03
2018-11-22T14:55:26.877Z,16.87
2018-11-22T14:57:55.617Z,16.20
2018-11-22T15:00:24.274Z,19.60
2018-11-22T15:02:52.794Z,18.63
2018-11-22T15:05:21.325Z,17.83
2018-11-22T15:07:49.932Z,17.57
2018-11-22T15:10:18.671Z,18.27
2018-11-22T15:12:48.031Z,18.37
2018-11-22T15:15:18.826Z,18.33
2018-11-22T15:17:47.369Z,19.40
2018-11-22T15:20:17.594Z,19.77
2018-11-22T15:22:47.051Z,19.07
2018-11-22T15:25:18.953Z,17.50
2018-11-22T15:27:47.832Z,19.77
2018-11-22T15:30:18.123Z,19.63
2018-11-22T15:32:46.661Z,19.03
2018-11-22T15:35:18.835Z,18.73
2018-11-22T15:37:47.777Z,18.73
2018-11-22T15:40:19.998Z,20.10
2018-11-22T15:42:49.889Z,19.47
2018-11-22T15:45:19.974Z,20.30
2018-11-22T15:47:48.687Z,20.73
2018-11-22T15:50:18.555Z,19.90
2018-11-22T15:52:47.250Z,20.90
2018-11-22T15:55:20.816Z,20.43
2018-11-22T15:57:46.315Z,20.17
2018-11-22T16:00:18.255Z,20.60
2018-11-22T16:02:47.523Z,19.70
2018-11-22T16:05:16.655Z,20.97
2018-11-22T16:07:45.328Z,19.47
2018-11-22T16:10:16.761Z,19.80
2018-11-22T16:12:45.953Z,21.13
2018-11-22T16:15:22.247Z,22.20
2018-11-22T16:17:50.887Z,20.17
2018-11-22T16:20:19.538Z,21.30
2018-11-22T16:22:48.150Z,20.90
2018-11-22T16:25:16.721Z,19.20
2018-11-22T16:27:45.335Z,21.23
2018-11-22T16:30:16.072Z,20.83
2018-11-22T16:32:45.024Z,19.83
2018-11-22T16:35:14.664Z,19.00
2018-11-22T16:37:44.361Z,20.80
2018-11-22T16:40:15.170Z,20.83
2018-11-22T16:42:46.555Z,22.40
2018-11-22T16:45:22.541Z,19.83
2018-11-22T16:47:51.344Z,20.27
2018-11-22T16:50:24.268Z,19.93
2018-11-22T16:52:53.167Z,19.07
2018-11-22T16:55:22.550Z,20.00
2018-11-22T16:57:52.082Z,20.93
2018-11-22T17:00:25.931Z,20.23
2018-11-22T17:02:58.341Z,20.47
2018-11-22T17:05:27.167Z,22.03
2018-11-22T17:07:56.215Z,19.70
2018-11-22T17:10:26.207Z,21.33
2018-11-22T17:12:56.255Z,20.30
2018-11-22T17:15:26.618Z,22.60
2018-11-22T17:17:56.254Z,20.03
2018-11-22T17:20:26.074Z,21.83
2018-11-22T17:22:55.157Z,21.87
2018-11-22T17:25:25.241Z,22.50
2018-11-22T17:27:56.297Z,19.60
2018-11-22T17:30:27.543Z,19.63
2018-11-22T17:32:56.210Z,22.27
2018-11-22T17:35:26.106Z,20.57
2018-11-22T17:37:56.164Z,21.03
2018-11-22T17:40:26.114Z,20.57
2018-11-22T17:42:54.728Z,21.10
2018-11-22T17:45:30.726Z,21.57
2018-11-22T17:47:59.380Z,20.70
2018-11-22T17:50:31.648Z,21.17
2018-11-22T17:53:00.617Z,21.23
2018-11-22T17:55:30.199Z,21.27
2018-11-22T17:57:58.843Z,20.03
2018-11-22T18:00:34.091Z,21.80
2018-11-22T18:03:04.019Z,20.23
2018-11-22T18:05:32.820Z,19.60
2018-11-22T18:08:01.514Z,21.40
2018-11-22T18:10:32.845Z,20.23
2018-11-22T18:13:01.586Z,21.07
2018-11-22T18:15:31.996Z,21.07
2018-11-22T18:18:00.695Z,21.57
2018-11-22T18:20:30.973Z,21.10
2018-11-22T18:23:00.612Z,21.10
2018-11-22T18:25:30.567Z,20.73
2018-11-22T18:27:59.349Z,21.43
2018-11-22T18:30:30.414Z,20.33
2018-11-22T18:33:00.864Z,20.23
2018-11-22T18:35:29.807Z,21.17
2018-11-22T18:37:58.457Z,20.53
2018-11-22T18:40:28.816Z,19.90
2018-11-22T18:42:58.907Z,20.77
2018-11-22T18:45:38.396Z,20.27
2018-11-22T18:48:08.400Z,20.20
2018-11-22T18:50:37.636Z,20.47
2018-11-22T18:53:07.893Z,20.57
2018-11-22T18:55:36.666Z,19.00
2018-11-22T18:58:05.821Z,21.73
2018-11-22T19:00:38.609Z,19.53
2018-11-22T19:03:10.235Z,33.37
2018-11-22T19:05:39.010Z,19.63
2018-11-22T19:08:07.778Z,34.27
2018-11-22T19:10:37.813Z,24.07
2018-11-22T19:13:07.836Z,33.43
2018-11-22T19:15:37.994Z,19.60
2018-11-22T19:18:08.134Z,22.90
2018-11-22T19:20:39.395Z,19.17
2018-11-22T19:23:08.959Z,17.80
2018-11-22T19:25:37.528Z,16.73
2018-11-22T19:28:06.932Z,18.10
2018-11-22T19:30:38.810Z,17.30
2018-11-22T19:33:08.899Z,17.90
2018-11-22T19:35:39.471Z,17.63
2018-11-22T19:38:08.057Z,16.40
2018-11-22T19:40:37.936Z,17.83
2018-11-22T19:43:08.510Z,16.90
2018-11-22T19:45:39.852Z,17.23
2018-11-22T19:48:08.880Z,17.43
2018-11-22T19:50:37.551Z,17.37
2018-11-22T19:53:07.633Z,17.33
2018-11-22T19:55:37.475Z,18.23
2018-11-22T19:58:07.773Z,17.57
2018-11-22T20:00:36.328Z,18.37
2018-11-22T20:03:06.489Z,18.80
2018-11-22T20:05:37.531Z,18.20
2018-11-22T20:08:08.149Z,17.87
2018-11-22T20:10:39.213Z,18.20
2018-11-22T20:13:07.805Z,17.17
2018-11-22T20:15:36.435Z,17.93
2018-11-22T20:18:06.210Z,18.27
2018-11-22T20:20:34.793Z,17.50
2018-11-22T20:23:03.391Z,17.27
2018-11-22T20:25:32.070Z,16.77
2018-11-22T20:28:00.770Z,17.17
2018-11-22T20:30:31.641Z,18.40
2018-11-22T20:33:00.213Z,17.57
2018-11-22T20:35:29.325Z,16.10
2018-11-22T20:37:57.923Z,17.40
2018-11-22T20:40:27.528Z,18.03
2018-11-22T20:42:56.282Z,18.20
2018-11-22T20:45:25.915Z,16.97
2018-11-22T20:47:59.189Z,17.73
2018-11-22T20:50:29.390Z,16.87
2018-11-22T20:52:58.078Z,18.53
2018-11-22T20:55:29.060Z,17.70
2018-11-22T20:57:58.917Z,17.83
2018-11-22T21:00:29.164Z,17.43
2018-11-22T21:02:57.968Z,17.07
2018-11-22T21:05:27.410Z,18.83
2018-11-22T21:07:56.157Z,18.40
2018-11-22T21:10:26.722Z,18.23
2018-11-22T21:12:55.351Z,16.90
2018-11-22T21:15:26.152Z,18.20
2018-11-22T21:17:56.611Z,18.07
2018-11-22T21:20:27.813Z,18.53
2018-11-22T21:22:56.511Z,17.87
2018-11-22T21:25:25.381Z,16.60
2018-11-22T21:27:54.136Z,18.13
2018-11-22T21:30:29.835Z,18.63
2018-11-22T21:32:59.416Z,16.83
2018-11-22T21:35:28.163Z,17.30
2018-11-22T21:37:57.945Z,17.10
2018-11-22T21:40:27.411Z,18.03
2018-11-22T21:42:56.186Z,18.13
2018-11-22T21:45:25.811Z,16.73
2018-11-22T21:47:54.568Z,17.43
2018-11-22T21:50:24.654Z,17.47
2018-11-22T21:52:53.516Z,17.13
2018-11-22T21:55:23.430Z,18.60
2018-11-22T21:57:52.930Z,19.03
2018-11-22T22:00:38.424Z,18.03
2018-11-22T22:03:08.215Z,18.40
2018-11-22T22:05:36.826Z,18.57
2018-11-22T22:08:05.553Z,17.57
2018-11-22T22:10:34.094Z,18.17
2018-11-22T22:13:02.609Z,17.20
2018-11-22T22:15:32.541Z,17.70
2018-11-22T22:18:01.104Z,18.80
2018-11-22T22:20:31.198Z,17.60
2018-11-22T22:22:59.882Z,17.33
2018-11-22T22:25:30.309Z,18.37
2018-11-22T22:27:59.225Z,17.30
2018-11-22T22:30:32.126Z,18.07
2018-11-22T22:33:02.328Z,18.33
2018-11-22T22:35:30.858Z,17.70
2018-11-22T22:37:59.366Z,17.80
2018-11-22T22:40:28.686Z,18.40
2018-11-22T22:42:57.906Z,17.73
2018-11-22T22:45:27.449Z,18.40
2018-11-22T22:47:55.995Z,18.87
2018-11-22T22:50:26.048Z,17.87
2018-11-22T22:52:55.925Z,18.23
2018-11-22T22:55:27.167Z,17.97
2018-11-22T22:57:56.318Z,18.00
2018-11-22T23:00:31.373Z,18.27
2018-11-22T23:03:03.317Z,17.20
2018-11-22T23:05:32.311Z,17.77
2018-11-22T23:08:00.897Z,16.77
2018-11-22T23:10:29.461Z,19.07
2018-11-22T23:12:58.940Z,17.77
2018-11-22T23:15:29.533Z,17.87
2018-11-22T23:17:58.164Z,16.93
2018-11-22T23:20:29.298Z,17.67
2018-11-22T23:22:57.834Z,16.80
2018-11-22T23:25:27.405Z,16.43
2018-11-22T23:27:55.943Z,16.83
2018-11-22T23:30:30.122Z,17.30
2018-11-22T23:33:00.230Z,16.57
2018-11-22T23:35:29.031Z,16.07
2018-11-22T23:37:57.954Z,17.50
2018-11-22T23:40:29.905Z,17.17
2018-11-22T23:42:59.117Z,16.83
2018-11-22T23:45:29.694Z,16.57
2018-11-22T23:47:59.207Z,15.13
2018-11-22T23:50:29.696Z,16.80
2018-11-22T23:53:01.646Z,17.77
2018-11-22T23:55:31.308Z,15.57
2018-11-22T23:58:01.050Z,16.00
